TimeEST,TemperatureF,Dew PointF,Humidity,Sea Level PressureIn,VisibilityMPH,Wind Direction,Wind SpeedMPH,Gust SpeedMPH,PrecipitationIn,Events,Conditions,WindDirDegrees,DateUTC
12:55 AM,34.0,25.0,70,29.75,10.0,NNE,11.5,21.9,N/A,,Overcast,20,2013-02-28 05:55:00
1:55 AM,33.1,24.1,70,29.77,10.0,NNE,10.4,21.9,N/A,,Overcast,30,2013-02-28 06:55:00
2:55 AM,33.1,24.1,70,29.76,10.0,NNE,12.7,-,N/A,,Overcast,20,2013-02-28 07:55:00
3:55 AM,32.0,23.0,69,29.77,10.0,NNE,11.5,18.4,N/A,,Overcast,20,2013-02-28 08:55:00
4:55 AM,32.0,21.9,66,29.78,10.0,NNE,10.4,18.4,N/A,,Overcast,20,2013-02-28 09:55:00
5:55 AM,30.9,21.0,67,29.81,10.0,NNE,13.8,21.9,0.00,,Overcast,30,2013-02-28 10:55:00
6:55 AM,30.0,21.0,69,29.82,10.0,NNE,15.0,24.2,N/A,,Overcast,30,2013-02-28 11:55:00
7:55 AM,28.0,19.0,69,29.85,10.0,NNE,9.2,19.6,N/A,,Overcast,30,2013-02-28 12:55:00
8:53 AM,28.4,17.6,64,29.85,10.0,NNE,13.8,24.2,N/A,,Overcast,30,2013-02-28 13:53:00
8:55 AM,28.0,18.0,66,29.88,10.0,NNE,10.4,24.2,N/A,,Overcast,30,2013-02-28 13:55:00
9:16 AM,28.9,18.0,64,29.86,10.0,North,11.5,-,N/A,,Overcast,10,2013-02-28 14:16:00
9:55 AM,28.0,17.1,63,29.89,10.0,NNE,12.7,-,N/A,,Overcast,20,2013-02-28 14:55:00
10:55 AM,27.0,17.1,66,29.92,10.0,North,13.8,23.0,N/A,,Overcast,10,2013-02-28 15:55:00
11:55 AM,28.9,16.0,58,29.93,10.0,North,16.1,24.2,N/A,,Overcast,10,2013-02-28 16:55:00
12:13 PM,28.9,16.0,58,29.91,10.0,NE,17.3,24.2,N/A,,Overcast,40,2013-02-28 17:13:00
12:55 PM,28.9,15.1,56,29.93,10.0,NNE,15.0,20.7,N/A,,Overcast,30,2013-02-28 17:55:00
1:55 PM,30.0,15.1,54,29.94,10.0,North,9.2,-,N/A,,Overcast,10,2013-02-28 18:55:00
2:55 PM,30.9,14.0,50,29.95,10.0,NE,11.5,19.6,N/A,,Partly Cloudy,40,2013-02-28 19:55:00
3:55 PM,32.0,12.9,45,29.96,10.0,North,12.7,-,N/A,,Scattered Clouds,360,2013-02-28 20:55:00
4:55 PM,30.0,12.9,49,29.98,10.0,NE,9.2,18.4,N/A,,Partly Cloudy,40,2013-02-28 21:55:00
5:55 PM,28.0,10.9,49,30.01,10.0,North,13.8,19.6,N/A,,Partly Cloudy,10,2013-02-28 22:55:00
6:55 PM,26.1,10.9,53,30.06,10.0,NNE,11.5,-,N/A,,Mostly Cloudy,30,2013-02-28 23:55:00
7:55 PM,23.0,10.0,58,30.09,10.0,NNE,6.9,20.7,N/A,,Clear,30,2013-03-01 00:55:00
8:55 PM,21.9,10.0,60,30.11,10.0,NNE,10.4,17.3,N/A,,Partly Cloudy,30,2013-03-01 01:55:00
9:55 PM,19.9,9.0,62,30.12,10.0,North,11.5,-,N/A,,Clear,10,2013-03-01 02:55:00
10:55 PM,19.0,8.1,62,30.14,10.0,North,9.2,-,N/A,,Clear,10,2013-03-01 03:55:00
11:55 PM,17.1,8.1,68,30.15,10.0,North,9.2,-,N/A,,Clear,360,2013-03-01 04:55:00